createdAt,value
2023-04-01T00:01:23.416Z,98124.24
2023-04-01T00:03:51.758Z,98123.58
2023-04-01T00:06:20.096Z,98125.05
2023-04-01T00:08:48.143Z,98126.36
2023-04-01T00:11:16.482Z,98133.86
2023-04-01T00:13:44.542Z,98131.39
2023-04-01T00:16:21.098Z,98128.88
2023-04-01T00:20:15.499Z,98126.76
2023-04-01T00:22:43.557Z,98130.77
2023-04-01T00:25:12.430Z,98122.23
2023-04-01T00:27:41.058Z,98127.21
2023-04-01T00:30:11.610Z,98120.70
2023-04-01T00:32:40.634Z,98117.54
2023-04-01T00:35:08.938Z,98114.70
2023-04-01T00:37:38.221Z,98113.71
2023-04-01T00:40:07.546Z,98116.75
2023-04-01T00:42:36.018Z,98113.70
2023-04-01T00:45:24.201Z,98113.49
2023-04-01T00:47:52.387Z,98109.14
2023-04-01T00:50:20.981Z,98113.52
2023-04-01T00:52:49.208Z,98111.58
2023-04-01T00:55:17.509Z,98113.05
2023-04-01T00:57:45.559Z,98115.27
2023-04-01T01:00:15.822Z,98116.23
2023-04-01T01:02:44.419Z,98114.29
2023-04-01T01:05:14.747Z,98111.50
2023-04-01T01:08:05.704Z,98109.35
2023-04-01T01:10:35.132Z,98108.60
2023-04-01T01:13:09.388Z,98108.86
2023-04-01T01:16:01.248Z,98106.13
2023-04-01T01:18:41.825Z,98114.16
2023-04-01T01:21:45.960Z,98118.02
2023-04-01T01:24:42.490Z,98117.90
2023-04-01T01:27:12.744Z,98114.53
2023-04-01T01:30:02.636Z,98113.70
2023-04-01T01:32:49.923Z,98113.54
2023-04-01T01:35:24.021Z,98113.90
2023-04-01T01:37:58.727Z,98118.91
2023-04-01T01:40:27.649Z,98126.30
2023-04-01T01:42:57.613Z,98129.88
2023-04-01T01:45:26.311Z,98128.33
2023-04-01T01:47:54.488Z,98133.34
2023-04-01T01:50:23.711Z,98134.02
2023-04-01T01:52:52.160Z,98139.90
2023-04-01T01:55:33.771Z,98139.67
2023-04-01T01:58:07.579Z,98143.98
2023-04-01T02:00:39.449Z,98142.04
2023-04-01T02:03:07.683Z,98145.54
2023-04-01T02:05:35.954Z,98147.14
2023-04-01T02:08:19.728Z,98145.20
2023-04-01T02:11:11.556Z,98145.16
2023-04-01T02:13:47.873Z,98139.02
2023-04-01T02:16:28.084Z,98144.39
2023-04-01T02:18:56.646Z,98141.88
2023-04-01T02:21:26.612Z,98137.95
2023-04-01T02:23:55.014Z,98140.09
2023-04-01T02:26:23.246Z,98142.54
2023-04-01T02:28:51.866Z,98144.34
2023-04-01T02:31:20.163Z,98142.61
2023-04-01T02:33:51.193Z,98137.12
2023-04-01T02:36:19.968Z,98139.27
2023-04-01T02:38:48.310Z,98140.39
2023-04-01T02:41:16.411Z,98134.48
2023-04-01T02:43:44.400Z,98129.36
2023-04-01T02:46:13.233Z,98129.78
2023-04-01T02:48:42.760Z,98127.92
2023-04-01T02:51:10.710Z,98128.63
2023-04-01T02:53:40.005Z,98130.39
2023-04-01T02:56:08.047Z,98134.70
2023-04-01T02:58:38.135Z,98135.66
2023-04-01T03:01:06.837Z,98135.50
2023-04-01T03:03:35.563Z,98134.08
2023-04-01T03:06:10.841Z,98137.33
2023-04-01T03:08:40.532Z,98136.39
2023-04-01T03:11:08.827Z,98137.55
2023-04-01T03:13:37.360Z,98136.75
2023-04-01T03:16:06.046Z,98136.45
2023-04-01T03:18:34.228Z,98133.54
2023-04-01T03:21:18.862Z,98138.96
2023-04-01T03:23:46.896Z,98134.80
2023-04-01T03:26:15.043Z,98137.75
2023-04-01T03:28:44.119Z,98135.17
2023-04-01T03:31:12.421Z,98133.58
2023-04-01T03:33:44.602Z,98142.02
2023-04-01T03:36:14.008Z,98138.71
2023-04-01T03:38:46.336Z,98142.50
2023-04-01T03:41:16.374Z,98149.05
2023-04-01T03:43:45.462Z,98154.00
2023-04-01T03:46:18.889Z,98157.58
2023-04-01T03:48:47.286Z,98159.11
2023-04-01T03:51:17.241Z,98166.89
2023-04-01T03:53:45.820Z,98168.38
2023-04-01T03:56:13.858Z,98162.24
2023-04-01T03:58:43.668Z,98161.45
2023-04-01T04:01:19.767Z,98165.41
2023-04-01T04:03:56.484Z,98165.89
2023-04-01T04:06:25.664Z,98163.94
2023-04-01T04:08:53.838Z,98164.91
2023-04-01T04:11:22.902Z,98168.91
2023-04-01T04:16:37.656Z,98177.90
2023-04-01T04:19:35.213Z,98181.53
2023-04-01T04:22:04.367Z,98191.92
2023-04-01T04:24:32.552Z,98193.21
2023-04-01T04:27:06.219Z,98187.31
2023-04-01T04:29:35.495Z,98185.41
2023-04-01T04:32:04.979Z,98182.52
2023-04-01T04:34:33.896Z,98178.96
2023-04-01T04:37:02.027Z,98176.48
2023-04-01T04:39:33.488Z,98170.15
2023-04-01T04:42:01.798Z,98175.86
2023-04-01T04:44:30.378Z,98168.38
2023-04-01T04:46:59.978Z,98170.83
2023-04-01T04:49:28.036Z,98173.33
2023-04-01T04:51:56.332Z,98174.98
2023-04-01T04:54:25.896Z,98172.02
2023-04-01T04:56:58.394Z,98178.02
2023-04-01T04:59:27.746Z,98180.50
2023-04-01T05:02:14.547Z,98176.75
2023-04-01T05:04:44.388Z,98181.69
2023-04-01T05:07:12.665Z,98175.36
2023-04-01T05:09:40.757Z,98175.37
2023-04-01T05:12:08.970Z,98167.86
2023-04-01T05:14:55.912Z,98166.14
2023-04-01T05:17:26.675Z,98163.23
2023-04-01T05:19:56.416Z,98166.49
2023-04-01T05:22:24.801Z,98170.80
2023-04-01T05:24:55.370Z,98173.27
2023-04-01T05:27:24.164Z,98174.23
2023-04-01T05:29:54.458Z,98176.22
2023-04-01T05:32:41.861Z,98174.23
2023-04-01T05:35:11.005Z,98174.11
2023-04-01T05:37:39.005Z,98183.71
2023-04-01T05:40:07.738Z,98178.73
2023-04-01T05:42:39.177Z,98179.89
2023-04-01T05:45:08.122Z,98174.73
2023-04-01T05:48:02.511Z,98178.25
2023-04-01T05:50:33.773Z,98186.65
2023-04-01T05:53:04.583Z,98192.51
2023-04-01T05:55:32.788Z,98197.02
2023-04-01T05:58:01.339Z,98194.80
2023-04-01T06:00:29.887Z,98193.34
2023-04-01T06:03:01.170Z,98194.17
2023-04-01T06:05:31.082Z,98196.27
2023-04-01T06:08:01.886Z,98195.17
2023-04-01T06:10:44.633Z,98201.23
2023-04-01T06:13:27.309Z,98199.27
2023-04-01T06:16:06.192Z,98201.15
2023-04-01T06:18:44.012Z,98201.58
2023-04-01T06:21:24.419Z,98199.45
2023-04-01T06:24:13.090Z,98193.58
2023-04-01T06:26:57.752Z,98196.27
2023-04-01T06:29:42.472Z,98186.88
2023-04-01T06:32:28.841Z,98182.68
2023-04-01T06:35:12.457Z,98181.92
2023-04-01T06:38:12.411Z,98177.16
2023-04-01T06:41:02.385Z,98177.77
2023-04-01T06:43:49.667Z,98181.98
2023-04-01T06:46:49.276Z,98184.10
2023-04-01T06:49:59.501Z,98182.48
2023-04-01T06:52:55.780Z,98175.64
2023-04-01T06:55:53.180Z,98180.16
2023-04-01T06:58:48.661Z,98179.04
2023-04-01T07:01:41.546Z,98186.84
2023-04-01T07:04:35.981Z,98190.83
2023-04-01T07:07:17.403Z,98194.58
2023-04-01T07:09:56.456Z,98198.11
2023-04-01T07:12:51.030Z,98194.60
2023-04-01T07:15:40.761Z,98188.79
2023-04-01T07:18:22.703Z,98194.35
2023-04-01T07:20:53.815Z,98195.11
2023-04-01T07:23:24.033Z,98192.92
2023-04-01T07:26:05.164Z,98196.88
2023-04-01T07:28:35.440Z,98197.24
2023-04-01T07:31:28.935Z,98194.64
2023-04-01T07:34:27.919Z,98188.52
2023-04-01T07:37:13.959Z,98189.98
2023-04-01T07:39:57.551Z,98191.05
2023-04-01T07:42:47.179Z,98186.95
2023-04-01T07:45:21.113Z,98185.77
2023-04-01T07:47:59.850Z,98181.02
2023-04-01T07:50:38.567Z,98181.30
2023-04-01T07:53:17.403Z,98187.22
2023-04-01T07:56:04.387Z,98192.55
2023-04-01T07:59:11.468Z,98192.06
2023-04-01T08:02:52.981Z,98192.67
2023-04-01T08:05:21.588Z,98200.08
2023-04-01T08:08:19.527Z,98200.29
2023-04-01T08:11:32.884Z,98202.38
2023-04-01T08:14:27.280Z,98204.29
2023-04-01T08:17:17.930Z,98218.16
2023-04-01T08:19:53.421Z,98219.75
2023-04-01T08:22:41.880Z,98225.64
2023-04-01T08:25:27.927Z,98224.40
2023-04-01T08:28:09.261Z,98224.65
2023-04-01T08:30:48.844Z,98227.85
2023-04-01T08:33:28.059Z,98229.34
2023-04-01T08:36:11.481Z,98230.47
2023-04-01T08:38:46.097Z,98230.33
2023-04-01T08:41:41.797Z,98230.08
2023-04-01T08:45:06.535Z,98223.29
2023-04-01T08:47:39.456Z,98219.67
2023-04-01T08:50:38.345Z,98220.41
2023-04-01T08:53:44.811Z,98222.15
2023-04-01T08:56:39.332Z,98223.05
2023-04-01T08:59:25.756Z,98221.71
2023-04-01T09:02:00.051Z,98223.21
2023-04-01T09:05:09.533Z,98219.27
2023-04-01T09:07:43.638Z,98214.95
2023-04-01T09:10:29.899Z,98214.16
2023-04-01T09:13:32.583Z,98210.58
2023-04-01T09:16:19.497Z,98211.08
2023-04-01T09:19:01.324Z,98211.63
2023-04-01T09:21:36.402Z,98213.61
2023-04-01T09:24:36.662Z,98214.35
2023-04-01T09:27:06.936Z,98212.60
2023-04-01T09:30:01.966Z,98205.34
2023-04-01T09:32:53.303Z,98206.70
2023-04-01T09:35:39.807Z,98208.70
2023-04-01T09:38:29.745Z,98205.15
2023-04-01T09:41:34.643Z,98208.23
2023-04-01T09:44:33.410Z,98202.46
2023-04-01T09:47:28.019Z,98204.38
2023-04-01T09:50:25.639Z,98206.66
2023-04-01T09:53:20.005Z,98204.09
2023-04-01T09:56:21.379Z,98203.77
2023-04-01T09:59:24.562Z,98202.58
2023-04-01T10:02:40.873Z,98205.08
2023-04-01T10:05:43.014Z,98202.27
2023-04-01T10:08:43.792Z,98195.62
2023-04-01T10:11:33.854Z,98187.90
2023-04-01T10:14:28.635Z,98182.91
2023-04-01T10:17:22.732Z,98180.92
2023-04-01T10:19:52.795Z,98177.97
2023-04-01T10:22:51.443Z,98180.45
2023-04-01T10:25:42.991Z,98177.08
2023-04-01T10:28:20.949Z,98176.00
2023-04-01T10:31:43.030Z,98171.58
2023-04-01T10:35:07.139Z,98173.56
2023-04-01T10:37:54.156Z,98159.79
2023-04-01T10:40:44.682Z,98161.74
2023-04-01T10:43:43.272Z,98156.05
2023-04-01T10:46:30.001Z,98169.85
2023-04-01T10:48:59.102Z,98160.05
2023-04-01T10:51:34.679Z,98159.83
2023-04-01T10:54:20.057Z,98158.54
2023-04-01T10:57:26.941Z,98159.02
2023-04-01T11:00:40.097Z,98158.37
2023-04-01T11:03:48.364Z,98162.45
2023-04-01T11:07:11.478Z,98163.81
2023-04-01T11:10:02.725Z,98168.79
2023-04-01T11:13:02.709Z,98164.16
2023-04-01T11:15:40.016Z,98162.86
2023-04-01T11:18:30.760Z,98157.90
2023-04-01T11:21:26.548Z,98159.77
2023-04-01T11:24:18.457Z,98153.06
2023-04-01T11:27:12.488Z,98151.67
2023-04-01T11:30:02.003Z,98142.65
2023-04-01T11:32:45.698Z,98136.45
2023-04-01T11:35:20.619Z,98135.94
2023-04-01T11:38:08.095Z,98132.23
2023-04-01T11:41:14.387Z,98131.70
2023-04-01T11:44:28.370Z,98122.86
2023-04-01T11:47:20.810Z,98126.20
2023-04-01T11:50:24.557Z,98112.71
2023-04-01T11:53:22.012Z,98112.56
2023-04-01T11:56:14.464Z,98108.19
2023-04-01T11:59:06.499Z,98099.61
2023-04-01T12:01:43.631Z,98099.73
2023-04-01T12:04:30.996Z,98096.18
2023-04-01T12:07:09.847Z,98096.33
2023-04-01T12:10:04.689Z,98100.61
2023-04-01T12:12:40.158Z,98092.63
2023-04-01T12:15:21.416Z,98100.56
2023-04-01T12:17:58.886Z,98100.67
2023-04-01T12:20:42.433Z,98096.59
2023-04-01T12:23:39.704Z,98098.19
2023-04-01T12:26:30.483Z,98096.55
2023-04-01T12:29:11.247Z,98092.12
2023-04-01T12:32:20.383Z,98093.45
2023-04-01T12:35:04.992Z,98095.79
2023-04-01T12:37:42.182Z,98092.28
2023-04-01T12:40:10.139Z,98089.55
2023-04-01T12:42:48.351Z,98092.86
2023-04-01T12:45:43.873Z,98089.64
2023-04-01T12:48:47.936Z,98087.27
2023-04-01T12:51:29.013Z,98090.42
2023-04-01T12:54:12.389Z,98089.54
2023-04-01T12:56:50.030Z,98083.17
2023-04-01T13:00:16.256Z,98080.63
2023-04-01T13:02:58.861Z,98080.36
2023-04-01T13:05:38.932Z,98079.27
2023-04-01T13:08:12.790Z,98076.65
2023-04-01T13:10:50.774Z,98081.06
2023-04-01T13:13:31.821Z,98079.20
2023-04-01T13:16:04.225Z,98081.11
2023-04-01T13:19:03.607Z,98079.26
2023-04-01T13:21:40.903Z,98076.16
2023-04-01T13:24:20.893Z,98077.80
2023-04-01T13:26:58.637Z,98073.23
2023-04-01T13:29:34.202Z,98077.46
2023-04-01T13:32:36.916Z,98066.31
2023-04-01T13:35:20.346Z,98071.18
2023-04-01T13:38:12.563Z,98068.52
2023-04-01T13:41:02.213Z,98072.54
2023-04-01T13:43:47.056Z,98073.64
2023-04-01T13:46:48.229Z,98067.98
2023-04-01T13:49:25.446Z,98071.38
2023-04-01T13:52:17.754Z,98070.72
2023-04-01T13:55:15.409Z,98075.49
2023-04-01T13:57:56.663Z,98080.11
2023-04-01T14:00:34.409Z,98076.94
2023-04-01T14:03:47.060Z,98075.65
2023-04-01T14:06:35.562Z,98075.46
2023-04-01T14:09:09.692Z,98076.81
2023-04-01T14:12:03.079Z,98076.19
2023-04-01T14:14:37.949Z,98080.64
2023-04-01T14:17:28.862Z,98079.59
2023-04-01T14:20:35.406Z,98075.35
2023-04-01T14:23:16.969Z,98074.77
2023-04-01T14:25:49.118Z,98070.63
2023-04-01T14:28:36.311Z,98076.21
2023-04-01T14:31:19.677Z,98070.95
2023-04-01T14:34:18.289Z,98077.59
2023-04-01T14:36:52.904Z,98075.68
2023-04-01T14:39:40.334Z,98076.13
2023-04-01T14:42:26.727Z,98075.24
2023-04-01T14:45:20.648Z,98080.42
2023-04-01T14:48:14.525Z,98081.98
2023-04-01T14:50:47.597Z,98081.41
2023-04-01T14:53:29.598Z,98085.48
2023-04-01T14:55:59.694Z,98085.95
2023-04-01T14:58:48.534Z,98091.67
2023-04-01T15:01:31.815Z,98091.45
2023-04-01T15:04:38.860Z,98092.25
2023-04-01T15:07:16.576Z,98093.78
2023-04-01T15:09:55.024Z,98093.80
2023-04-01T15:12:28.498Z,98096.19
2023-04-01T15:15:04.070Z,98091.55
2023-04-01T15:18:00.111Z,98094.00
2023-04-01T15:20:36.203Z,98095.68
2023-04-01T15:23:19.536Z,98102.06
2023-04-01T15:26:09.089Z,98105.86
2023-04-01T15:28:41.463Z,98110.05
2023-04-01T15:31:30.236Z,98114.87
2023-04-01T15:34:17.651Z,98122.95
2023-04-01T15:37:11.287Z,98125.35
2023-04-01T15:39:59.018Z,98132.27
2023-04-01T15:42:58.006Z,98134.88
2023-04-01T15:45:36.432Z,98134.21
2023-04-01T15:48:27.183Z,98134.00
2023-04-01T15:51:12.460Z,98140.64
2023-04-01T15:53:49.533Z,98142.59
2023-04-01T15:56:23.448Z,98148.88
2023-04-01T15:58:55.009Z,98155.75
2023-04-01T16:01:28.509Z,98155.80
2023-04-01T16:04:26.923Z,98160.39
2023-04-01T16:07:12.328Z,98160.65
2023-04-01T16:10:18.862Z,98162.79
2023-04-01T16:13:10.495Z,98167.70
2023-04-01T16:16:04.965Z,98167.45
2023-04-01T16:18:35.976Z,98169.73
2023-04-01T16:21:23.473Z,98173.23
2023-04-01T16:23:54.352Z,98176.70
2023-04-01T16:26:36.045Z,98176.48
2023-04-01T16:29:26.249Z,98178.11
2023-04-01T16:31:57.078Z,98182.73
2023-04-01T16:36:23.060Z,98187.08
2023-04-01T16:39:13.385Z,98190.94
2023-04-01T16:45:01.568Z,98195.17
2023-04-01T16:47:57.442Z,98197.54
2023-04-01T16:50:32.789Z,98198.81
2023-04-01T16:53:12.705Z,98198.70
2023-04-01T16:56:07.285Z,98199.14
2023-04-01T16:58:56.632Z,98199.36
2023-04-01T17:01:30.550Z,98203.55
2023-04-01T17:04:01.975Z,98209.39
2023-04-01T17:06:40.464Z,98213.70
2023-04-01T17:09:30.720Z,98213.43
2023-04-01T17:12:32.081Z,98214.96
2023-04-01T17:15:06.577Z,98215.60
2023-04-01T17:17:57.026Z,98223.30
2023-04-01T17:21:10.517Z,98225.33
2023-04-01T17:23:47.566Z,98228.19
2023-04-01T17:26:26.194Z,98231.05
2023-04-01T17:28:58.830Z,98231.65
2023-04-01T17:31:27.004Z,98230.16
2023-04-01T17:34:07.459Z,98229.23
2023-04-01T17:36:59.874Z,98225.54
2023-04-01T17:39:27.974Z,98226.95
2023-04-01T17:42:01.477Z,98228.35
2023-04-01T17:44:41.490Z,98229.42
2023-04-01T17:47:24.865Z,98232.26
2023-04-01T17:50:06.329Z,98229.90
2023-04-01T17:52:43.527Z,98230.39
2023-04-01T17:55:38.159Z,98230.96
2023-04-01T17:58:22.034Z,98228.59
2023-04-01T18:01:08.644Z,98228.20
2023-04-01T18:03:56.827Z,98228.86
2023-04-01T18:06:43.426Z,98232.92
2023-04-01T18:09:37.503Z,98238.99
2023-04-01T18:12:12.115Z,98235.48
2023-04-01T18:15:17.019Z,98235.62
2023-04-01T18:18:09.840Z,98237.21
2023-04-01T18:21:06.833Z,98231.27
2023-04-01T18:23:42.748Z,98227.31
2023-04-01T18:26:19.862Z,98226.89
2023-04-01T18:28:57.757Z,98228.11
2023-04-01T18:31:27.318Z,98234.45
2023-04-01T18:34:17.599Z,98234.86
2023-04-01T18:36:56.881Z,98237.79
2023-04-01T18:39:39.664Z,98240.60
2023-04-01T18:42:23.035Z,98237.62
2023-04-01T18:44:59.132Z,98234.29
2023-04-01T18:47:46.736Z,98237.72
2023-04-01T18:50:28.559Z,98238.55
2023-04-01T18:53:09.822Z,98235.94
2023-04-01T18:55:42.688Z,98237.98
2023-04-01T18:58:24.889Z,98238.31
2023-04-01T19:01:04.499Z,98235.37
2023-04-01T19:03:39.750Z,98234.65
2023-04-01T19:06:18.320Z,98231.44
2023-04-01T19:08:47.432Z,98234.15
2023-04-01T19:11:18.611Z,98233.17
2023-04-01T19:14:12.732Z,98230.33
2023-04-01T19:16:59.568Z,98233.17
2023-04-01T19:19:48.911Z,98236.85
2023-04-01T19:22:32.515Z,98236.67
2023-04-01T19:25:38.420Z,98241.59
2023-04-01T19:28:22.353Z,98238.09
2023-04-01T19:31:28.238Z,98241.13
2023-04-01T19:34:15.691Z,98236.67
2023-04-01T19:37:07.966Z,98233.18
2023-04-01T19:40:09.954Z,98238.73
2023-04-01T19:42:59.493Z,98235.45
2023-04-01T19:46:20.754Z,98239.29
2023-04-01T19:49:07.255Z,98235.58
2023-04-01T19:51:44.228Z,98246.21
2023-04-01T19:54:38.414Z,98244.80
2023-04-01T19:57:36.350Z,98248.02
2023-04-01T20:00:08.757Z,98247.13
2023-04-01T20:02:57.335Z,98244.42
2023-04-01T20:05:44.632Z,98249.02
2023-04-01T20:08:26.536Z,98252.59
2023-04-01T20:11:03.010Z,98248.16
2023-04-01T20:13:47.704Z,98248.91
2023-04-01T20:16:16.462Z,98252.48
2023-04-01T20:18:54.658Z,98249.55
2023-04-01T20:21:46.998Z,98250.43
2023-04-01T20:24:14.919Z,98251.77
2023-04-01T20:26:46.909Z,98255.45
2023-04-01T20:29:28.043Z,98251.84
2023-04-01T20:32:24.903Z,98258.14
2023-04-01T20:35:15.778Z,98255.00
2023-04-01T20:38:16.906Z,98253.39
2023-04-01T20:40:50.727Z,98254.88
2023-04-01T20:43:26.879Z,98250.45
2023-04-01T20:46:01.641Z,98251.89
2023-04-01T20:48:42.162Z,98257.91
2023-04-01T20:51:11.167Z,98254.39
2023-04-01T20:53:52.261Z,98253.65
2023-04-01T20:56:42.128Z,98257.54
2023-04-01T20:59:47.753Z,98252.78
2023-04-01T21:02:34.108Z,98256.89
2023-04-01T21:05:32.415Z,98254.86
2023-04-01T21:08:16.305Z,98261.54
2023-04-01T21:11:17.759Z,98259.95
2023-04-01T21:13:52.872Z,98256.64
2023-04-01T21:16:45.136Z,98253.23
2023-04-01T21:19:29.706Z,98252.45
2023-04-01T21:22:20.446Z,98249.70
2023-04-01T21:25:03.752Z,98252.38
2023-04-01T21:27:47.952Z,98253.98
2023-04-01T21:30:41.658Z,98253.06
2023-04-01T21:33:19.355Z,98249.71
2023-04-01T21:36:02.582Z,98252.45
2023-04-01T21:39:14.979Z,98256.87
2023-04-01T21:42:11.745Z,98253.88
2023-04-01T21:44:44.940Z,98250.50
2023-04-01T21:47:20.991Z,98246.09
2023-04-01T21:50:17.553Z,98252.85
2023-04-01T21:53:15.015Z,98246.69
2023-04-01T21:55:52.570Z,98248.48
2023-04-01T21:58:30.057Z,98248.65
2023-04-01T22:01:00.900Z,98247.48
2023-04-01T22:03:52.244Z,98250.95
2023-04-01T22:06:24.488Z,98250.05
2023-04-01T22:09:17.953Z,98256.05
2023-04-01T22:11:58.026Z,98254.14
2023-04-01T22:14:57.738Z,98256.20
2023-04-01T22:17:50.491Z,98261.61
2023-04-01T22:20:36.166Z,98258.42
2023-04-01T22:23:28.089Z,98257.40
2023-04-01T22:26:38.266Z,98254.42
2023-04-01T22:29:12.469Z,98256.74
2023-04-01T22:31:54.963Z,98254.82
2023-04-01T22:34:48.855Z,98251.16
2023-04-01T22:37:50.856Z,98251.88
2023-04-01T22:40:44.752Z,98253.13
2023-04-01T22:43:34.473Z,98251.36
2023-04-01T22:46:16.734Z,98249.50
2023-04-01T22:48:48.826Z,98251.41
2023-04-01T22:51:19.278Z,98250.52
2023-04-01T22:54:03.465Z,98256.61
2023-04-01T22:56:38.777Z,98255.99
2023-04-01T22:59:31.980Z,98257.41
2023-04-01T23:02:19.668Z,98254.48
2023-04-01T23:04:50.375Z,98256.30
2023-04-01T23:07:47.869Z,98255.88
2023-04-01T23:10:24.990Z,98257.15
2023-04-01T23:12:57.890Z,98260.88
2023-04-01T23:15:26.052Z,98261.73
2023-04-01T23:18:06.971Z,98261.42
2023-04-01T23:21:07.306Z,98263.27
2023-04-01T23:23:45.718Z,98259.67
2023-04-01T23:26:44.609Z,98259.81
2023-04-01T23:29:15.678Z,98260.97
2023-04-01T23:31:44.590Z,98259.14
2023-04-01T23:34:12.793Z,98256.66
2023-04-01T23:36:47.406Z,98251.94
2023-04-01T23:39:24.429Z,98252.12
2023-04-01T23:41:55.883Z,98255.47
2023-04-01T23:44:26.093Z,98256.70
2023-04-01T23:46:54.017Z,98259.63
2023-04-01T23:49:24.363Z,98259.66
2023-04-01T23:51:59.422Z,98258.08
2023-04-01T23:54:31.819Z,98261.36
2023-04-01T23:57:00.529Z,98262.02
2023-04-01T23:59:31.008Z,98257.04
